Weather at Walter Ranch Airport [CLOSED]

Public forecast

Using degrees Fahrenheit for public forecast. Weather courtesy of forecast.io.

Closest aviation weather report (METAR) to Walter Ranch Airport

Closest report is Gila Bend Af Aux Airport, 23.5 nm (43.5 km) W. Retrieved 2021/06/20 01:58 UTC (53 minutes ago):

KGXF 200158Z AUTO 25012KT 10SM CLR 44/04 A2953 RMK AO2 SLP983 T04420043

Closest aviation forecast (TAF) to Walter Ranch Airport

Closest forecast is Phoenix Sky Harbor International Airport, 34.7 nm (64.3 km) NNE. Retrieved 2021-06-20 00:39 UTC (2 hours ago):

TAF KPHX 192336Z 2000/2106 27015G22KT P6SM SKC FM200300 25010KT P6SM SKC FM201000 11005KT P6SM FEW150 FEW250 FM201700 26010KT P6SM SKC FM201900 27017G24KT P6SM SKC